Terminal Aerodrome Forecast
Issued by NWS

Current Version | Previous Version | Text Only | Print | Product List | Glossary Off
Versions: 1 2 3 4 5 6 7 8 9 10 11 12 13 14 15 16 17 18 19 20 21 22 23 24 25

904
FTUS41 KPBZ 110207 AAA
TAFHLG
TAF AMD
KHLG 110207Z 1102/1124 26011G19KT P6SM SCT019 OVC029
     FM110400 27012G20KT 3SM -SHSN OVC012
     FM111000 29010G20KT 6SM -SHSN OVC025
     FM111800 30012G20KT P6SM OVC040=

USA.gov is the U.S. government's official web portal to all federal, state and local government web resources and services.